createdAt,value
2018-04-25T00:00:01.166Z,10.63
2018-04-25T00:02:29.290Z,10.43
2018-04-25T00:04:57.455Z,9.93
2018-04-25T00:07:25.596Z,10.20
2018-04-25T00:09:53.742Z,10.40
2018-04-25T00:12:21.872Z,8.97
2018-04-25T00:14:50.025Z,8.70
2018-04-25T00:17:18.162Z,9.07
2018-04-25T00:19:46.553Z,9.40
2018-04-25T00:22:14.662Z,8.73
2018-04-25T00:24:42.807Z,8.87
2018-04-25T00:27:10.942Z,8.30
2018-04-25T00:29:39.083Z,8.47
2018-04-25T00:32:07.224Z,8.10
2018-04-25T00:34:35.599Z,8.57
2018-04-25T00:37:03.730Z,7.63
2018-04-25T00:39:31.850Z,7.57
2018-04-25T00:42:00.044Z,7.17
2018-04-25T00:44:28.252Z,7.83
2018-04-25T00:46:56.288Z,6.83
2018-04-25T00:49:24.431Z,6.97
2018-04-25T00:51:52.559Z,6.37
2018-04-25T00:54:20.710Z,6.27
2018-04-25T00:56:48.846Z,6.03
2018-04-25T00:59:16.975Z,5.90
2018-04-25T01:01:45.117Z,6.07
2018-04-25T01:04:13.247Z,6.00
2018-04-25T01:06:41.357Z,5.80
2018-04-25T01:09:09.481Z,5.20
2018-04-25T01:11:37.634Z,5.23
2018-04-25T01:14:05.746Z,5.00
2018-04-25T01:16:33.883Z,4.90
2018-04-25T01:19:02.023Z,5.17
2018-04-25T01:21:30.275Z,5.10
2018-04-25T01:24:01.804Z,4.93
2018-04-25T01:26:31.835Z,4.90
2018-04-25T01:29:00.793Z,4.50
2018-04-25T01:31:38.486Z,4.57
2018-04-25T01:34:07.367Z,5.00
2018-04-25T01:36:38.033Z,5.17
2018-04-25T01:39:10.054Z,5.03
2018-04-25T01:41:38.196Z,4.90
2018-04-25T01:44:10.013Z,5.40
2018-04-25T01:46:38.138Z,5.80
2018-04-25T01:52:17.972Z,5.83
2018-04-25T01:54:57.910Z,6.90
2018-04-25T01:57:37.797Z,6.97
2018-04-25T02:00:17.871Z,6.77
2018-04-25T02:02:45.670Z,6.57
2018-04-25T02:05:13.796Z,6.80
2018-04-25T02:07:41.908Z,6.33
2018-04-25T02:10:10.066Z,6.80
2018-04-25T02:12:38.192Z,6.57
2018-04-25T02:15:06.330Z,6.50
2018-04-25T02:17:34.470Z,6.40
2018-04-25T02:20:02.591Z,6.80
2018-04-25T02:22:30.727Z,6.53
2018-04-25T02:24:58.886Z,7.57
2018-04-25T02:27:27.031Z,7.40
2018-04-25T02:29:55.152Z,7.07
2018-04-25T02:32:23.305Z,8.17
2018-04-25T02:34:51.410Z,7.10
2018-04-25T02:37:19.548Z,8.33
2018-04-25T02:39:47.699Z,7.70
2018-04-25T02:42:15.828Z,8.27
2018-04-25T02:44:43.963Z,8.43
2018-04-25T02:47:12.085Z,7.80
2018-04-25T02:49:40.204Z,8.13
2018-04-25T02:52:08.348Z,8.33
2018-04-25T02:54:36.513Z,8.37
2018-04-25T02:57:04.806Z,8.27
2018-04-25T02:59:32.965Z,8.67
2018-04-25T03:02:01.107Z,7.87
2018-04-25T03:04:29.257Z,9.17
2018-04-25T03:06:57.410Z,8.43
2018-04-25T03:09:25.565Z,8.77
2018-04-25T03:11:53.687Z,9.20
2018-04-25T03:14:21.797Z,8.70
2018-04-25T03:16:49.995Z,9.50
2018-04-25T03:19:18.094Z,9.30
2018-04-25T03:21:49.713Z,9.30
2018-04-25T03:24:17.867Z,8.70
2018-04-25T03:26:46.009Z,9.40
2018-04-25T03:29:14.138Z,9.63
2018-04-25T03:31:42.312Z,9.13
2018-04-25T03:34:10.413Z,9.13
2018-04-25T03:36:38.576Z,8.10
2018-04-25T03:39:06.692Z,7.27
2018-04-25T03:41:34.826Z,7.10
2018-04-25T03:44:02.965Z,7.37
2018-04-25T03:46:31.084Z,6.80
2018-04-25T03:48:59.203Z,6.70
2018-04-25T03:51:27.356Z,6.77
2018-04-25T03:53:56.624Z,6.73
2018-04-25T03:56:24.876Z,6.97
2018-04-25T03:58:53.029Z,6.60
2018-04-25T04:01:21.172Z,6.33
2018-04-25T04:03:49.309Z,7.03
2018-04-25T04:06:17.540Z,7.07
2018-04-25T04:08:45.685Z,7.33
2018-04-25T04:11:13.829Z,7.27
2018-04-25T04:13:41.946Z,6.73
2018-04-25T04:16:10.104Z,7.13
2018-04-25T04:18:38.234Z,7.10
2018-04-25T04:21:06.367Z,7.20
2018-04-25T04:23:34.519Z,6.70
2018-04-25T04:26:02.660Z,5.90
2018-04-25T04:28:30.790Z,5.77
2018-04-25T04:30:58.931Z,5.30
2018-04-25T04:33:27.142Z,5.70
2018-04-25T04:35:55.249Z,4.97
2018-04-25T04:38:23.397Z,6.00
2018-04-25T04:40:51.521Z,6.50
2018-04-25T04:43:19.669Z,5.90
2018-04-25T04:45:47.797Z,5.13
2018-04-25T04:48:15.924Z,3.80
2018-04-25T04:50:44.065Z,3.80
2018-04-25T04:53:12.221Z,3.30
2018-04-25T04:55:40.330Z,2.80
2018-04-25T04:58:08.471Z,2.73
2018-04-25T05:00:36.638Z,2.70
2018-04-25T05:03:04.754Z,2.77
2018-04-25T05:05:32.942Z,2.97
2018-04-25T05:08:01.066Z,3.23
2018-04-25T05:10:29.199Z,3.10
2018-04-25T05:12:57.580Z,3.40
2018-04-25T05:15:25.723Z,3.40
2018-04-25T05:17:53.920Z,2.90
2018-04-25T05:20:22.086Z,3.27
2018-04-25T05:22:50.281Z,2.70
2018-04-25T05:25:18.392Z,2.73
2018-04-25T05:27:46.541Z,2.50
2018-04-25T05:30:14.682Z,2.50
2018-04-25T05:32:42.829Z,2.47
2018-04-25T05:35:10.951Z,2.20
2018-04-25T05:37:39.117Z,2.60
2018-04-25T05:40:07.263Z,2.93
2018-04-25T05:42:35.391Z,2.70
2018-04-25T05:45:03.550Z,2.67
2018-04-25T05:47:31.663Z,2.50
2018-04-25T05:49:59.809Z,2.60
2018-04-25T05:52:27.929Z,2.63
2018-04-25T05:54:56.067Z,2.73
2018-04-25T05:57:24.175Z,2.90
2018-04-25T05:59:52.318Z,2.40
2018-04-25T06:02:20.450Z,3.00
2018-04-25T06:04:48.579Z,2.83
2018-04-25T06:07:16.718Z,2.63
2018-04-25T06:09:48.112Z,2.90
2018-04-25T06:12:16.251Z,2.80
2018-04-25T06:14:44.409Z,3.17
2018-04-25T06:17:12.508Z,2.90
2018-04-25T06:19:40.639Z,2.40
2018-04-25T06:22:08.766Z,2.40
2018-04-25T06:24:36.881Z,2.40
2018-04-25T06:27:05.015Z,2.40
2018-04-25T06:29:33.150Z,2.70
2018-04-25T06:32:01.300Z,2.57
2018-04-25T06:34:29.417Z,2.80
2018-04-25T06:36:57.550Z,2.47
2018-04-25T06:39:26.144Z,3.03
2018-04-25T06:41:54.146Z,2.60
2018-04-25T06:44:22.283Z,2.57
2018-04-25T06:46:50.430Z,2.87
2018-04-25T06:49:18.567Z,2.90
2018-04-25T06:51:46.694Z,3.67
2018-04-25T06:54:14.837Z,3.20
2018-04-25T06:56:42.974Z,3.50
2018-04-25T06:59:11.116Z,3.10
2018-04-25T07:01:39.258Z,4.70
2018-04-25T07:04:07.421Z,4.10
2018-04-25T07:06:35.575Z,4.27
2018-04-25T07:09:03.704Z,4.80
2018-04-25T07:11:31.827Z,4.63
2018-04-25T07:13:59.986Z,4.43
2018-04-25T07:16:28.111Z,4.77
2018-04-25T07:18:56.236Z,6.00
2018-04-25T07:21:24.368Z,5.67
2018-04-25T07:23:52.559Z,5.80
2018-04-25T07:26:20.630Z,5.73
2018-04-25T07:28:48.779Z,5.07
2018-04-25T07:31:16.917Z,5.60
2018-04-25T07:33:45.038Z,5.07
2018-04-25T07:36:13.380Z,5.40
2018-04-25T07:38:41.585Z,5.90
2018-04-25T07:41:09.644Z,5.93
2018-04-25T07:43:37.770Z,5.83
2018-04-25T07:46:05.884Z,6.63
2018-04-25T07:48:34.004Z,7.27
2018-04-25T07:51:02.169Z,6.70
2018-04-25T07:53:30.289Z,6.87
2018-04-25T07:55:58.427Z,7.10
2018-04-25T07:58:26.580Z,7.23
2018-04-25T08:00:54.720Z,7.37
2018-04-25T08:03:22.856Z,6.73
2018-04-25T08:05:51.002Z,7.10
2018-04-25T08:08:19.204Z,6.93
2018-04-25T08:10:47.340Z,8.13
2018-04-25T08:16:30.017Z,8.47
2018-04-25T08:19:20.097Z,8.07
2018-04-25T08:21:48.233Z,7.90
2018-04-25T08:24:16.353Z,8.80
2018-04-25T08:26:44.497Z,7.90
2018-04-25T08:29:12.609Z,7.80
2018-04-25T08:31:40.737Z,8.50
2018-04-25T08:34:08.891Z,8.90
2018-04-25T08:36:37.001Z,9.33
2018-04-25T08:39:06.025Z,10.83
2018-04-25T08:41:34.190Z,10.90
2018-04-25T08:44:02.343Z,10.50
2018-04-25T08:46:30.451Z,8.70
2018-04-25T08:48:58.743Z,7.20
2018-04-25T08:51:26.880Z,7.87
2018-04-25T08:53:55.019Z,7.20
2018-04-25T08:56:23.169Z,6.87
2018-04-25T08:58:51.678Z,7.77
2018-04-25T09:01:19.810Z,8.30
2018-04-25T09:03:47.961Z,7.47
2018-04-25T09:06:16.105Z,6.77
2018-04-25T09:08:44.212Z,6.47
2018-04-25T09:11:12.351Z,6.73
2018-04-25T09:13:40.488Z,7.23
2018-04-25T09:16:08.605Z,6.90
2018-04-25T09:18:36.934Z,6.43
2018-04-25T09:21:05.175Z,6.90
2018-04-25T09:23:33.314Z,6.97
2018-04-25T09:26:01.448Z,7.87
2018-04-25T09:28:29.591Z,7.10
2018-04-25T09:30:57.747Z,6.70
2018-04-25T09:33:26.087Z,6.70
2018-04-25T09:35:54.213Z,6.53
2018-04-25T09:38:22.354Z,6.40
2018-04-25T09:40:50.491Z,6.00
2018-04-25T09:43:18.626Z,6.53
2018-04-25T09:45:46.762Z,6.17
2018-04-25T09:48:14.888Z,5.73
2018-04-25T09:50:42.996Z,6.07
2018-04-25T09:53:11.135Z,6.30
2018-04-25T09:55:39.279Z,5.67
2018-04-25T09:58:07.463Z,5.70
2018-04-25T10:00:41.110Z,5.77
2018-04-25T10:03:14.883Z,6.00
2018-04-25T10:05:43.032Z,5.40
2018-04-25T10:08:11.145Z,5.43
2018-04-25T10:10:39.267Z,5.07
2018-04-25T10:13:07.396Z,6.30
2018-04-25T10:15:35.580Z,4.87
2018-04-25T10:18:03.726Z,5.37
2018-04-25T10:20:31.871Z,5.90
2018-04-25T10:23:00.007Z,6.20
2018-04-25T10:25:28.153Z,6.17
2018-04-25T10:27:56.286Z,5.80
2018-04-25T10:30:24.406Z,5.83
2018-04-25T10:32:52.534Z,5.87
2018-04-25T10:35:20.685Z,5.83
2018-04-25T10:37:48.828Z,5.87
2018-04-25T10:40:16.945Z,5.73
2018-04-25T10:42:45.091Z,6.10
2018-04-25T10:45:13.239Z,5.87
2018-04-25T10:47:41.357Z,6.27
2018-04-25T10:50:09.486Z,6.20
2018-04-25T10:52:37.646Z,6.23
2018-04-25T10:55:05.763Z,6.17
2018-04-25T10:57:33.928Z,6.87
2018-04-25T11:00:02.231Z,5.60
2018-04-25T11:02:30.421Z,5.73
2018-04-25T11:04:58.496Z,6.90
2018-04-25T11:07:26.643Z,6.67
2018-04-25T11:09:54.755Z,6.60
2018-04-25T11:12:22.903Z,6.43
2018-04-25T11:14:51.013Z,7.00
2018-04-25T11:17:20.255Z,6.27
2018-04-25T11:19:48.405Z,5.67
2018-04-25T11:22:16.530Z,5.63
2018-04-25T11:24:44.669Z,5.80
2018-04-25T11:27:12.796Z,6.00
2018-04-25T11:29:40.912Z,5.87
2018-04-25T11:32:09.032Z,7.53
2018-04-25T11:34:37.164Z,6.93
2018-04-25T11:37:05.303Z,7.13
2018-04-25T11:39:33.438Z,6.83
2018-04-25T11:42:01.599Z,8.47
2018-04-25T11:44:29.716Z,8.30
2018-04-25T11:46:57.853Z,7.97
2018-04-25T11:49:25.986Z,7.53
2018-04-25T11:51:54.190Z,8.20
2018-04-25T11:54:22.295Z,8.53
2018-04-25T11:56:50.424Z,7.80
2018-04-25T11:59:18.706Z,9.43
2018-04-25T12:01:46.882Z,10.77
2018-04-25T12:04:15.036Z,12.37
2018-04-25T12:06:43.150Z,9.73
2018-04-25T12:09:11.272Z,9.67
2018-04-25T12:11:39.462Z,10.43
2018-04-25T12:14:07.607Z,8.80
2018-04-25T12:16:35.721Z,9.20
2018-04-25T12:19:03.890Z,8.67
2018-04-25T12:21:32.011Z,7.37
2018-04-25T12:24:00.145Z,7.67
2018-04-25T12:26:28.487Z,7.97
2018-04-25T12:28:56.636Z,8.20
2018-04-25T12:31:24.774Z,8.83
2018-04-25T12:33:52.928Z,8.03
2018-04-25T12:36:21.068Z,8.53
2018-04-25T12:38:51.138Z,8.17
2018-04-25T12:41:19.269Z,7.87
2018-04-25T12:43:47.406Z,8.33
2018-04-25T12:46:15.539Z,8.60
2018-04-25T12:48:47.388Z,7.80
2018-04-25T12:51:15.450Z,7.97
2018-04-25T12:53:43.564Z,8.57
2018-04-25T12:56:11.740Z,7.20
2018-04-25T12:58:39.863Z,7.43
2018-04-25T13:01:08.007Z,6.87
2018-04-25T13:03:39.175Z,5.70
2018-04-25T13:06:07.289Z,5.83
2018-04-25T13:08:35.404Z,6.40
2018-04-25T13:11:03.558Z,6.83
2018-04-25T13:13:31.682Z,6.40
2018-04-25T13:15:59.832Z,6.87
2018-04-25T13:18:27.960Z,6.13
2018-04-25T13:20:56.089Z,6.10
2018-04-25T13:23:27.953Z,6.00
2018-04-25T13:25:56.097Z,5.27
2018-04-25T13:28:24.218Z,6.03
2018-04-25T13:30:52.344Z,5.60
2018-04-25T13:33:20.485Z,5.73
2018-04-25T13:35:49.306Z,6.97
2018-04-25T13:38:17.445Z,4.77
2018-04-25T13:40:45.601Z,5.23
2018-04-25T13:43:13.727Z,4.17
2018-04-25T13:45:41.843Z,4.07
2018-04-25T13:48:10.028Z,4.90
2018-04-25T13:50:38.181Z,4.23
2018-04-25T13:53:06.307Z,4.63
2018-04-25T13:55:34.485Z,3.90
2018-04-25T13:58:02.602Z,6.20
2018-04-25T14:00:30.749Z,5.57
2018-04-25T14:02:58.981Z,5.87
2018-04-25T14:05:27.111Z,5.10
2018-04-25T14:07:55.245Z,5.43
2018-04-25T14:10:23.374Z,4.57
2018-04-25T14:12:51.526Z,4.50
2018-04-25T14:15:19.821Z,4.17
2018-04-25T14:17:47.955Z,4.27
2018-04-25T14:20:16.105Z,3.97
2018-04-25T14:22:44.232Z,4.10
2018-04-25T14:25:12.363Z,3.90
2018-04-25T14:27:40.512Z,4.10
2018-04-25T14:30:08.644Z,4.40
2018-04-25T14:32:36.782Z,3.90
2018-04-25T14:35:04.921Z,4.13
2018-04-25T14:37:33.058Z,3.97
2018-04-25T14:40:01.220Z,3.90
2018-04-25T14:42:29.336Z,4.20
2018-04-25T14:44:57.471Z,3.87
2018-04-25T14:47:25.620Z,5.10
2018-04-25T14:49:53.744Z,3.77
2018-04-25T14:52:21.890Z,4.20
2018-04-25T14:54:50.041Z,3.90
2018-04-25T14:57:18.163Z,3.47
2018-04-25T14:59:46.297Z,4.13
2018-04-25T15:02:14.449Z,3.83
2018-04-25T15:04:42.575Z,4.10
2018-04-25T15:07:10.782Z,3.77
2018-04-25T15:09:42.316Z,4.20
2018-04-25T15:12:10.456Z,4.90
2018-04-25T15:14:38.573Z,5.50
2018-04-25T15:17:06.701Z,5.00
2018-04-25T15:19:34.842Z,5.27
2018-04-25T15:22:02.963Z,5.30
2018-04-25T15:24:31.118Z,5.40
2018-04-25T15:26:59.255Z,5.90
2018-04-25T15:29:27.383Z,6.13
2018-04-25T15:31:58.867Z,5.40
2018-04-25T15:34:27.051Z,5.60
2018-04-25T15:36:55.191Z,5.90
2018-04-25T15:39:23.332Z,5.60
2018-04-25T15:41:51.473Z,5.97
2018-04-25T15:44:19.602Z,5.60
2018-04-25T15:46:47.770Z,6.03
2018-04-25T15:49:15.930Z,6.70
2018-04-25T15:51:44.062Z,5.37
2018-04-25T15:54:12.212Z,6.07
2018-04-25T15:56:40.324Z,5.67
2018-04-25T15:59:08.474Z,5.93
2018-04-25T16:01:36.624Z,6.67
2018-04-25T16:04:04.751Z,6.73
2018-04-25T16:06:32.886Z,6.10
2018-04-25T16:09:01.049Z,5.73
2018-04-25T16:11:29.200Z,5.60
2018-04-25T16:13:57.331Z,5.77
2018-04-25T16:16:25.466Z,5.50
2018-04-25T16:18:53.612Z,5.10
2018-04-25T16:21:21.746Z,4.83
2018-04-25T16:23:49.867Z,4.80
2018-04-25T16:26:18.003Z,5.30
2018-04-25T16:28:46.137Z,4.63
2018-04-25T16:31:14.579Z,4.33
2018-04-25T16:33:42.658Z,4.90
2018-04-25T16:36:10.809Z,4.90
2018-04-25T16:38:38.982Z,4.30
2018-04-25T16:41:07.095Z,4.67
2018-04-25T16:43:35.204Z,4.60
2018-04-25T16:46:03.552Z,4.10
2018-04-25T16:48:31.694Z,3.97
2018-04-25T16:50:59.823Z,3.60
2018-04-25T16:53:27.988Z,4.43
2018-04-25T16:55:56.111Z,3.70
2018-04-25T16:58:24.255Z,3.20
2018-04-25T17:00:52.371Z,3.10
2018-04-25T17:03:20.502Z,3.90
2018-04-25T17:05:48.637Z,3.93
2018-04-25T17:08:16.783Z,3.47
2018-04-25T17:10:44.923Z,4.23
2018-04-25T17:13:13.043Z,3.93
2018-04-25T17:15:41.364Z,4.27
2018-04-25T17:18:09.499Z,4.57
2018-04-25T17:20:37.618Z,4.30
2018-04-25T17:23:05.890Z,3.63
2018-04-25T17:25:33.917Z,4.40
2018-04-25T17:28:02.061Z,3.60
2018-04-25T17:30:30.206Z,3.63
2018-04-25T17:32:58.392Z,3.93
2018-04-25T17:35:26.522Z,3.90
2018-04-25T17:37:54.684Z,3.70
2018-04-25T17:40:22.788Z,4.40
2018-04-25T17:42:50.954Z,3.80
2018-04-25T17:45:19.089Z,3.77
2018-04-25T17:47:47.327Z,3.60
2018-04-25T17:50:15.443Z,3.80
2018-04-25T17:52:43.564Z,3.83
2018-04-25T17:55:11.705Z,3.90
2018-04-25T17:57:39.831Z,3.83
2018-04-25T18:00:07.970Z,3.70
2018-04-25T18:02:39.544Z,3.93
2018-04-25T18:05:07.696Z,3.93
2018-04-25T18:07:36.003Z,3.57
2018-04-25T18:10:04.122Z,3.70
2018-04-25T18:12:32.260Z,3.70
2018-04-25T18:15:00.411Z,3.50
2018-04-25T18:17:28.535Z,3.67
2018-04-25T18:19:56.729Z,4.40
2018-04-25T18:22:25.123Z,3.60
2018-04-25T18:24:53.235Z,3.97
2018-04-25T18:27:21.344Z,4.30
2018-04-25T18:29:49.479Z,3.90
2018-04-25T18:32:17.587Z,3.63
2018-04-25T18:34:45.738Z,3.90
2018-04-25T18:37:14.103Z,3.40
2018-04-25T18:39:42.195Z,4.50
2018-04-25T18:42:10.315Z,3.53
2018-04-25T18:44:40.354Z,4.00
2018-04-25T18:47:08.470Z,3.80
2018-04-25T18:49:36.612Z,3.80
2018-04-25T18:52:04.740Z,4.37
2018-04-25T18:54:32.875Z,3.90
2018-04-25T18:57:00.999Z,4.33
2018-04-25T18:59:29.133Z,4.40
2018-04-25T19:01:57.262Z,3.70
2018-04-25T19:04:25.392Z,4.00
2018-04-25T19:06:53.544Z,3.80
2018-04-25T19:09:21.678Z,3.97
2018-04-25T19:11:49.808Z,4.70
2018-04-25T19:14:17.972Z,4.10
2018-04-25T19:16:46.089Z,3.40
2018-04-25T19:19:20.265Z,3.83
2018-04-25T19:21:48.390Z,4.40
2018-04-25T19:24:16.513Z,3.70
2018-04-25T19:26:44.652Z,3.47
2018-04-25T19:29:12.780Z,4.20
2018-04-25T19:31:40.892Z,3.57
2018-04-25T19:34:09.044Z,4.00
2018-04-25T19:36:37.197Z,3.90
2018-04-25T19:39:05.439Z,4.03
2018-04-25T19:41:33.768Z,3.93
2018-04-25T19:44:01.964Z,3.90
2018-04-25T19:46:30.077Z,4.10
2018-04-25T19:49:01.357Z,4.43
2018-04-25T19:51:29.490Z,3.90
2018-04-25T19:53:57.621Z,4.10
2018-04-25T19:56:25.771Z,3.50
2018-04-25T19:58:53.906Z,4.03
2018-04-25T20:01:22.053Z,3.60
2018-04-25T20:03:50.195Z,4.00
2018-04-25T20:06:18.349Z,4.60
2018-04-25T20:08:46.505Z,3.93
2018-04-25T20:11:14.649Z,3.40
2018-04-25T20:13:42.857Z,3.33
2018-04-25T20:16:10.997Z,3.77
2018-04-25T20:18:39.143Z,3.40
2018-04-25T20:21:07.562Z,3.50
2018-04-25T20:23:35.721Z,3.40
2018-04-25T20:26:04.012Z,3.30
2018-04-25T20:28:32.160Z,3.23
2018-04-25T20:31:00.336Z,3.43
2018-04-25T20:33:28.483Z,3.50
2018-04-25T20:35:59.856Z,3.53
2018-04-25T20:38:27.993Z,3.60
2018-04-25T20:40:56.154Z,3.80
2018-04-25T20:43:24.307Z,3.43
2018-04-25T20:45:52.443Z,4.33
2018-04-25T20:48:20.590Z,3.70
2018-04-25T20:50:48.722Z,3.90
2018-04-25T20:53:16.864Z,4.03
2018-04-25T20:55:45.104Z,4.20
2018-04-25T20:58:13.206Z,3.57
2018-04-25T21:00:41.331Z,4.30
2018-04-25T21:03:09.491Z,3.90
2018-04-25T21:05:37.679Z,4.43
2018-04-25T21:08:05.848Z,4.40
2018-04-25T21:10:33.976Z,3.80
2018-04-25T21:13:02.104Z,4.00
2018-04-25T21:15:30.208Z,4.10
2018-04-25T21:17:58.373Z,4.13
2018-04-25T21:20:26.490Z,4.23
2018-04-25T21:22:54.630Z,4.37
2018-04-25T21:25:22.773Z,3.90
2018-04-25T21:27:51.028Z,4.10
2018-04-25T21:30:19.186Z,4.03
2018-04-25T21:32:47.401Z,4.00
2018-04-25T21:35:15.513Z,3.20
2018-04-25T21:37:43.680Z,3.03
2018-04-25T21:40:11.831Z,3.37
2018-04-25T21:42:39.993Z,3.10
2018-04-25T21:45:08.180Z,3.47
2018-04-25T21:47:36.313Z,3.73
2018-04-25T21:50:04.468Z,3.30
2018-04-25T21:52:32.628Z,3.43
2018-04-25T21:55:00.781Z,3.87
2018-04-25T21:57:28.896Z,3.10
2018-04-25T21:59:57.030Z,3.33
2018-04-25T22:02:25.247Z,3.07
2018-04-25T22:04:53.378Z,3.20
2018-04-25T22:07:21.530Z,3.00
2018-04-25T22:09:49.668Z,2.43
2018-04-25T22:12:17.800Z,2.50
2018-04-25T22:14:45.944Z,2.70
2018-04-25T22:17:14.102Z,2.90
2018-04-25T22:19:42.238Z,2.93
2018-04-25T22:22:10.376Z,2.17
2018-04-25T22:24:38.528Z,3.20
2018-04-25T22:27:06.680Z,2.10
2018-04-25T22:29:34.817Z,2.23
2018-04-25T22:32:03.885Z,2.00
2018-04-25T22:34:32.024Z,1.80
2018-04-25T22:37:00.167Z,2.10
2018-04-25T22:39:28.330Z,1.90
2018-04-25T22:41:56.477Z,2.43
2018-04-25T22:44:24.654Z,2.90
2018-04-25T22:46:52.805Z,1.57
2018-04-25T22:49:20.949Z,1.87
2018-04-25T22:51:49.094Z,2.20
2018-04-25T22:54:17.257Z,2.43
2018-04-25T22:56:45.403Z,2.10
2018-04-25T22:59:13.541Z,1.60
2018-04-25T23:01:41.693Z,1.90
2018-04-25T23:04:11.797Z,1.90
2018-04-25T23:06:40.007Z,2.30
2018-04-25T23:09:08.132Z,1.63
2018-04-25T23:11:36.279Z,1.83
2018-04-25T23:14:04.395Z,1.90
2018-04-25T23:16:32.550Z,1.93
2018-04-25T23:19:00.693Z,1.93
2018-04-25T23:21:28.834Z,1.80
2018-04-25T23:23:56.969Z,1.83
2018-04-25T23:26:25.078Z,1.47
2018-04-25T23:28:53.220Z,1.97
2018-04-25T23:31:21.367Z,1.93
2018-04-25T23:33:49.504Z,1.90
2018-04-25T23:36:17.641Z,1.60
2018-04-25T23:38:45.790Z,2.33
2018-04-25T23:41:13.929Z,2.10
2018-04-25T23:43:42.058Z,2.00
2018-04-25T23:46:10.217Z,2.07
2018-04-25T23:48:38.337Z,2.20
2018-04-25T23:51:06.492Z,2.20
2018-04-25T23:53:34.689Z,2.97
2018-04-25T23:56:02.832Z,2.00
2018-04-25T23:58:30.957Z,1.87
